createdAt,value
2017-01-11T00:00:32.617Z,0
2017-01-11T00:01:13.779Z,0
2017-01-11T00:01:53.690Z,0
2017-01-11T00:02:34.204Z,0
2017-01-11T00:03:14.756Z,0
2017-01-11T00:03:55.254Z,0
2017-01-11T00:04:35.761Z,0
2017-01-11T00:05:16.313Z,0
2017-01-11T00:05:56.850Z,0
2017-01-11T00:06:37.361Z,0
2017-01-11T00:07:17.831Z,0
2017-01-11T00:07:58.332Z,0
2017-01-11T00:08:38.890Z,0
2017-01-11T00:09:19.418Z,0
2017-01-11T00:09:59.921Z,0
2017-01-11T00:10:40.502Z,0
2017-01-11T00:11:20.968Z,0
2017-01-11T00:15:06.448Z,0
2017-01-11T00:15:46.977Z,0
2017-01-11T00:16:27.511Z,0
2017-01-11T00:17:08.014Z,0
2017-01-11T00:17:48.553Z,0
2017-01-11T00:18:29.087Z,0
2017-01-11T00:19:09.588Z,0
2017-01-11T00:19:50.129Z,0
2017-01-11T00:20:30.674Z,0
2017-01-11T00:21:11.219Z,0
2017-01-11T00:21:51.739Z,0
2017-01-11T00:22:32.286Z,0
2017-01-11T00:23:12.847Z,0
2017-01-11T00:23:53.349Z,0
2017-01-11T00:24:33.902Z,0
2017-01-11T00:25:14.433Z,0
2017-01-11T00:25:54.929Z,0
2017-01-11T00:26:35.430Z,0
2017-01-11T00:27:15.962Z,0
2017-01-11T00:27:56.503Z,0
2017-01-11T00:28:37.006Z,0
2017-01-11T00:29:17.526Z,0
2017-01-11T00:29:58.056Z,0
2017-01-11T00:30:38.572Z,0
2017-01-11T00:31:19.123Z,0
2017-01-11T00:31:59.643Z,0
2017-01-11T00:32:40.165Z,0
2017-01-11T00:33:20.658Z,0
2017-01-11T00:34:01.193Z,0
2017-01-11T00:34:41.719Z,0
2017-01-11T00:35:22.234Z,0
2017-01-11T00:36:02.766Z,0
2017-01-11T00:36:43.296Z,0
2017-01-11T00:37:23.782Z,0
2017-01-11T00:38:04.293Z,0
2017-01-11T00:38:44.838Z,0
2017-01-11T00:39:25.346Z,0
2017-01-11T00:40:05.881Z,0
2017-01-11T00:40:46.381Z,0
2017-01-11T00:41:26.913Z,0
2017-01-11T00:42:07.408Z,0
2017-01-11T00:42:47.968Z,0
2017-01-11T00:43:28.493Z,0
2017-01-11T00:44:09.008Z,0
2017-01-11T00:44:49.529Z,0
2017-01-11T00:45:30.093Z,0
2017-01-11T00:46:10.602Z,0
2017-01-11T00:46:51.116Z,0
2017-01-11T00:47:31.665Z,0
2017-01-11T00:48:12.177Z,0
2017-01-11T00:48:52.699Z,0
2017-01-11T00:49:33.229Z,0
2017-01-11T00:50:13.737Z,0
2017-01-11T00:50:54.257Z,0
2017-01-11T00:51:34.817Z,0
2017-01-11T00:52:15.336Z,0
2017-01-11T00:52:55.827Z,0
2017-01-11T00:53:36.374Z,0
2017-01-11T00:54:16.908Z,0
2017-01-11T00:54:57.416Z,0
2017-01-11T00:55:37.974Z,0
2017-01-11T00:56:18.492Z,0
2017-01-11T00:56:59.017Z,0
2017-01-11T00:57:39.548Z,0
2017-01-11T00:58:20.047Z,0
2017-01-11T00:59:00.560Z,0
2017-01-11T00:59:41.089Z,0
2017-01-11T01:00:21.612Z,0
2017-01-11T01:01:02.144Z,0
2017-01-11T01:01:42.681Z,0
2017-01-11T01:02:23.190Z,0
2017-01-11T01:03:03.883Z,0
2017-01-11T01:03:44.409Z,0
2017-01-11T01:04:24.970Z,0
2017-01-11T01:05:05.490Z,0
2017-01-11T01:05:46.009Z,0
2017-01-11T01:06:26.571Z,0
2017-01-11T01:07:07.072Z,0
2017-01-11T01:07:47.572Z,0
2017-01-11T01:08:28.095Z,0
2017-01-11T01:09:08.646Z,0
2017-01-11T01:09:49.183Z,0
2017-01-11T01:12:02.001Z,0
2017-01-11T01:12:42.572Z,0
2017-01-11T01:13:23.076Z,0
2017-01-11T01:14:03.612Z,0
2017-01-11T01:14:44.160Z,0
2017-01-11T01:15:24.688Z,0
2017-01-11T01:16:05.234Z,0
2017-01-11T01:16:45.807Z,0
2017-01-11T01:17:26.342Z,0
2017-01-11T01:18:06.862Z,0
2017-01-11T01:18:47.378Z,0
2017-01-11T01:19:27.925Z,0
2017-01-11T01:20:08.439Z,0
2017-01-11T01:20:48.947Z,0
2017-01-11T01:21:29.478Z,0
2017-01-11T01:22:09.991Z,0
2017-01-11T01:22:50.525Z,0
2017-01-11T01:23:30.996Z,0
2017-01-11T01:24:11.544Z,0
2017-01-11T01:24:52.083Z,0
2017-01-11T01:25:32.613Z,0
2017-01-11T01:26:13.080Z,0
2017-01-11T01:26:53.697Z,0
2017-01-11T01:27:34.196Z,0
2017-01-11T01:28:14.738Z,0
2017-01-11T01:28:55.277Z,0
2017-01-11T01:29:35.779Z,0
2017-01-11T01:30:16.298Z,0
2017-01-11T01:30:56.833Z,0
2017-01-11T01:31:37.359Z,0
2017-01-11T01:32:17.871Z,0
2017-01-11T01:32:58.415Z,0
2017-01-11T01:33:38.949Z,0
2017-01-11T01:34:19.498Z,0
2017-01-11T01:34:59.967Z,0
2017-01-11T01:35:40.548Z,0
2017-01-11T01:36:21.079Z,0
2017-01-11T01:37:01.561Z,0
2017-01-11T01:37:42.093Z,0
2017-01-11T01:38:22.628Z,0
2017-01-11T01:39:03.217Z,0
2017-01-11T01:39:43.732Z,0
2017-01-11T01:40:24.223Z,0
2017-01-11T01:41:04.777Z,0
2017-01-11T01:41:45.308Z,0
2017-01-11T01:42:25.798Z,0
2017-01-11T01:43:06.368Z,0
2017-01-11T01:43:46.878Z,0
2017-01-11T01:44:27.412Z,0
2017-01-11T01:45:07.963Z,0
2017-01-11T01:45:48.485Z,0
2017-01-11T01:46:29.027Z,0
2017-01-11T01:50:13.998Z,0
2017-01-11T01:50:54.541Z,0
2017-01-11T01:51:35.059Z,0
2017-01-11T01:52:15.603Z,0
2017-01-11T01:52:56.133Z,0
2017-01-11T01:53:36.623Z,0
2017-01-11T01:54:17.145Z,0
2017-01-11T01:54:57.675Z,0
2017-01-11T01:55:38.213Z,0
2017-01-11T01:56:18.651Z,0
2017-01-11T01:56:59.245Z,0
2017-01-11T01:57:39.738Z,0
2017-01-11T01:58:20.267Z,0
2017-01-11T01:59:00.814Z,0
2017-01-11T01:59:41.355Z,0
2017-01-11T02:00:21.865Z,0
2017-01-11T02:01:02.409Z,0
2017-01-11T02:01:42.907Z,0
2017-01-11T02:02:23.411Z,0
2017-01-11T02:03:03.942Z,0
2017-01-11T02:03:44.453Z,0
2017-01-11T02:04:24.973Z,0
2017-01-11T02:05:05.496Z,0
2017-01-11T02:05:46.011Z,0
2017-01-11T02:06:26.526Z,0
2017-01-11T02:07:07.059Z,0
2017-01-11T02:11:07.744Z,0
2017-01-11T02:11:48.286Z,0
2017-01-11T02:12:28.857Z,0
2017-01-11T02:13:09.412Z,0
2017-01-11T02:13:49.947Z,0
2017-01-11T02:14:30.477Z,0
2017-01-11T02:15:11.034Z,0
2017-01-11T02:15:51.547Z,0
2017-01-11T02:16:32.059Z,0
2017-01-11T02:17:12.604Z,0
2017-01-11T02:17:53.091Z,0
2017-01-11T02:18:33.652Z,0
2017-01-11T02:19:14.180Z,0
2017-01-11T02:19:54.698Z,0
2017-01-11T02:20:35.242Z,0
2017-01-11T02:21:15.741Z,0
2017-01-11T02:21:56.254Z,0
2017-01-11T02:22:36.773Z,0
2017-01-11T02:23:17.298Z,0
2017-01-11T02:23:57.838Z,0
2017-01-11T02:24:38.346Z,0
2017-01-11T02:25:18.862Z,0
2017-01-11T02:25:59.405Z,0
2017-01-11T02:26:39.953Z,0
2017-01-11T02:27:20.495Z,0
2017-01-11T02:28:00.979Z,0
2017-01-11T02:28:41.542Z,0
2017-01-11T02:29:22.056Z,0
2017-01-11T02:30:02.590Z,0
2017-01-11T02:30:43.121Z,0
2017-01-11T02:31:23.647Z,0
2017-01-11T02:32:04.182Z,0
2017-01-11T02:32:44.709Z,0
2017-01-11T02:33:25.231Z,0
2017-01-11T02:34:05.750Z,0
2017-01-11T02:34:46.287Z,0
2017-01-11T02:35:26.828Z,0
2017-01-11T02:36:07.322Z,0
2017-01-11T02:36:47.835Z,0
2017-01-11T02:37:28.327Z,0
2017-01-11T02:38:08.908Z,0
2017-01-11T02:38:49.430Z,0
2017-01-11T02:39:29.963Z,0
2017-01-11T02:40:10.480Z,0
2017-01-11T02:40:50.988Z,0
2017-01-11T02:41:31.534Z,0
2017-01-11T02:42:12.035Z,0
2017-01-11T02:42:52.549Z,0
2017-01-11T02:43:33.073Z,0
2017-01-11T02:44:13.588Z,0
2017-01-11T02:44:54.119Z,0
2017-01-11T02:45:34.638Z,0
2017-01-11T02:46:15.172Z,0
2017-01-11T02:46:55.713Z,0
2017-01-11T02:47:36.240Z,0
2017-01-11T02:48:16.748Z,0
2017-01-11T02:48:57.238Z,0
2017-01-11T02:49:37.808Z,0
2017-01-11T02:51:50.580Z,0
2017-01-11T02:52:31.139Z,0
2017-01-11T02:53:11.631Z,0
2017-01-11T02:53:52.173Z,0
2017-01-11T02:54:32.706Z,0
2017-01-11T02:55:13.235Z,0
2017-01-11T02:55:53.785Z,0
2017-01-11T02:56:34.300Z,0
2017-01-11T02:57:14.813Z,0
2017-01-11T02:57:55.342Z,0
2017-01-11T02:58:35.834Z,0
2017-01-11T02:59:16.369Z,0
2017-01-11T02:59:56.910Z,0
2017-01-11T03:00:37.423Z,0
2017-01-11T03:01:17.939Z,0
2017-01-11T03:01:58.454Z,0
2017-01-11T03:02:38.998Z,0
2017-01-11T03:03:19.534Z,0
2017-01-11T03:04:00.072Z,0
2017-01-11T03:04:40.567Z,0
2017-01-11T03:05:21.106Z,0
2017-01-11T03:07:33.840Z,0
2017-01-11T03:08:14.375Z,0
2017-01-11T03:08:54.911Z,0
2017-01-11T03:09:35.467Z,0
2017-01-11T03:10:15.989Z,0
2017-01-11T03:10:56.492Z,0
2017-01-11T03:11:36.978Z,0
2017-01-11T03:12:17.519Z,0
2017-01-11T03:12:58.031Z,0
2017-01-11T03:13:38.573Z,0
2017-01-11T03:14:19.079Z,0
2017-01-11T03:14:59.636Z,0
2017-01-11T03:15:40.146Z,0
2017-01-11T03:16:20.700Z,0
2017-01-11T03:17:01.219Z,0
2017-01-11T03:17:41.747Z,0
2017-01-11T03:18:22.236Z,0
2017-01-11T03:19:02.783Z,0
2017-01-11T03:19:43.256Z,0
2017-01-11T03:20:23.884Z,0
2017-01-11T03:21:04.316Z,0
2017-01-11T03:21:44.875Z,0
2017-01-11T03:22:25.411Z,0
2017-01-11T03:23:05.967Z,0
2017-01-11T03:23:46.483Z,0
2017-01-11T03:24:27.022Z,0
2017-01-11T03:25:07.569Z,0
2017-01-11T03:25:48.102Z,0
2017-01-11T03:26:28.641Z,0
2017-01-11T03:27:09.190Z,0
2017-01-11T03:27:49.723Z,0
2017-01-11T03:28:30.282Z,0
2017-01-11T03:29:10.808Z,0
2017-01-11T03:29:51.344Z,0
2017-01-11T03:30:31.909Z,0
2017-01-11T03:31:12.479Z,0
2017-01-11T03:31:52.983Z,0
2017-01-11T03:32:33.518Z,0
2017-01-11T03:33:14.079Z,0
2017-01-11T03:33:54.623Z,0
2017-01-11T03:34:35.152Z,0
2017-01-11T03:35:15.697Z,0
2017-01-11T03:35:56.223Z,0
2017-01-11T03:36:36.848Z,0
2017-01-11T03:37:17.430Z,0
2017-01-11T03:37:57.957Z,0
2017-01-11T03:38:38.501Z,0
2017-01-11T03:39:19.048Z,0
2017-01-11T03:39:59.589Z,0
2017-01-11T03:40:40.132Z,0
2017-01-11T03:41:20.690Z,0
2017-01-11T03:42:01.181Z,0
2017-01-11T03:42:41.732Z,0
2017-01-11T03:43:22.308Z,0
2017-01-11T03:44:02.834Z,0
2017-01-11T03:44:43.420Z,0
2017-01-11T03:45:23.937Z,0
2017-01-11T03:46:04.480Z,0
2017-01-11T03:46:45.020Z,0
2017-01-11T03:47:25.558Z,0
2017-01-11T03:48:06.112Z,0
2017-01-11T03:48:46.647Z,0
2017-01-11T03:49:27.185Z,0
2017-01-11T03:50:07.734Z,0
2017-01-11T03:50:48.277Z,0
2017-01-11T03:51:28.813Z,0
2017-01-11T03:52:09.355Z,0
2017-01-11T03:52:49.895Z,0
2017-01-11T03:53:30.442Z,0
2017-01-11T03:54:10.979Z,0
2017-01-11T03:54:51.493Z,0
2017-01-11T03:55:32.031Z,0
2017-01-11T03:56:12.567Z,0
2017-01-11T03:56:53.133Z,0
2017-01-11T03:57:33.647Z,0
2017-01-11T03:58:14.214Z,0
2017-01-11T03:58:54.742Z,0
2017-01-11T03:59:35.286Z,0
2017-01-11T04:00:15.823Z,0
2017-01-11T04:00:56.427Z,0
2017-01-11T04:01:36.964Z,0
2017-01-11T04:02:17.493Z,0
2017-01-11T04:02:58.040Z,0
2017-01-11T04:03:38.585Z,0
2017-01-11T04:04:19.151Z,0
2017-01-11T04:04:59.700Z,0
2017-01-11T04:05:40.247Z,0
2017-01-11T04:06:20.807Z,0
2017-01-11T04:07:01.356Z,0
2017-01-11T04:07:41.923Z,0
2017-01-11T04:08:22.437Z,0
2017-01-11T04:09:02.995Z,0
2017-01-11T04:09:43.542Z,0
2017-01-11T04:10:24.060Z,0
2017-01-11T04:11:04.633Z,0
2017-01-11T04:11:45.152Z,0
2017-01-11T04:12:25.670Z,0
2017-01-11T04:13:06.217Z,0
2017-01-11T04:13:46.782Z,0
2017-01-11T04:14:27.338Z,0
2017-01-11T04:15:07.899Z,0
2017-01-11T04:15:48.461Z,0
2017-01-11T04:16:28.997Z,0
2017-01-11T04:17:09.541Z,0
2017-01-11T04:17:50.114Z,0
2017-01-11T04:18:30.631Z,0
2017-01-11T04:19:11.196Z,0
2017-01-11T04:19:51.729Z,0
2017-01-11T04:20:32.280Z,0
2017-01-11T04:21:12.802Z,0
2017-01-11T04:21:53.360Z,0
2017-01-11T04:22:33.921Z,0
2017-01-11T04:23:14.500Z,0
2017-01-11T04:23:55.027Z,0
2017-01-11T04:24:35.580Z,0
2017-01-11T04:25:16.113Z,0
2017-01-11T04:25:56.670Z,0
2017-01-11T04:26:37.232Z,0
2017-01-11T04:27:17.753Z,0
2017-01-11T04:27:58.295Z,0
2017-01-11T04:28:38.805Z,0
2017-01-11T04:29:19.400Z,0
2017-01-11T04:29:59.945Z,0
2017-01-11T04:30:40.445Z,0
2017-01-11T04:31:21.026Z,0
2017-01-11T04:32:01.551Z,0
2017-01-11T04:32:42.109Z,0
2017-01-11T04:33:22.668Z,0
2017-01-11T04:34:03.218Z,0
2017-01-11T04:34:43.773Z,0
2017-01-11T04:35:24.303Z,0
2017-01-11T04:36:04.852Z,0
2017-01-11T04:36:45.389Z,0
2017-01-11T04:37:25.935Z,0
2017-01-11T04:38:06.467Z,0
2017-01-11T04:38:47.004Z,0
2017-01-11T04:39:27.545Z,0
2017-01-11T04:40:08.103Z,0
2017-01-11T04:40:48.641Z,0
2017-01-11T04:41:29.170Z,0
2017-01-11T04:42:09.740Z,0
2017-01-11T04:42:50.282Z,0
2017-01-11T04:43:30.798Z,0
2017-01-11T04:44:11.345Z,0
2017-01-11T04:44:51.886Z,0
2017-01-11T04:45:32.427Z,0
2017-01-11T04:46:12.995Z,0
2017-01-11T04:46:53.545Z,0
2017-01-11T04:47:34.082Z,0
2017-01-11T04:48:14.623Z,0
2017-01-11T04:48:55.206Z,0
2017-01-11T04:49:35.736Z,0
2017-01-11T04:50:16.294Z,0
2017-01-11T04:50:56.851Z,0
2017-01-11T04:51:37.387Z,0
2017-01-11T04:52:17.924Z,0
2017-01-11T04:52:58.473Z,0
2017-01-11T04:53:39.029Z,0
2017-01-11T04:54:19.567Z,0
2017-01-11T04:55:00.128Z,0
2017-01-11T04:55:40.688Z,0
2017-01-11T04:56:21.221Z,0
2017-01-11T04:57:01.771Z,0
2017-01-11T04:57:42.312Z,0
2017-01-11T04:58:22.842Z,0
2017-01-11T04:59:03.386Z,0
2017-01-11T04:59:43.885Z,0
2017-01-11T05:00:24.426Z,0
2017-01-11T05:01:04.990Z,0
2017-01-11T05:01:45.529Z,0
2017-01-11T05:02:26.118Z,0
2017-01-11T05:03:06.644Z,0
2017-01-11T05:03:47.182Z,0
2017-01-11T05:04:27.737Z,0
2017-01-11T05:05:08.288Z,0
2017-01-11T05:05:48.852Z,0
2017-01-11T05:06:29.377Z,0
2017-01-11T05:07:09.906Z,0
2017-01-11T05:07:50.443Z,0
2017-01-11T05:08:30.956Z,0
2017-01-11T05:09:11.511Z,0
2017-01-11T05:09:52.058Z,0
2017-01-11T05:10:32.589Z,0
2017-01-11T05:11:13.139Z,0
2017-01-11T05:11:53.677Z,0
2017-01-11T05:12:34.203Z,0
2017-01-11T05:13:14.766Z,0
2017-01-11T05:13:55.301Z,0
2017-01-11T05:14:35.867Z,0
2017-01-11T05:15:16.434Z,0
2017-01-11T05:15:56.990Z,0
2017-01-11T05:16:37.534Z,0
2017-01-11T05:17:18.069Z,0
2017-01-11T05:17:58.615Z,0
2017-01-11T05:18:39.150Z,0
2017-01-11T05:19:19.706Z,0
2017-01-11T05:20:00.237Z,0
2017-01-11T05:20:40.799Z,0
2017-01-11T05:21:21.354Z,0
2017-01-11T05:22:01.877Z,0
2017-01-11T05:22:42.436Z,0
2017-01-11T05:23:22.935Z,0
2017-01-11T05:24:03.485Z,0
2017-01-11T05:24:44.012Z,0
2017-01-11T05:25:24.548Z,0
2017-01-11T05:26:05.105Z,0
2017-01-11T05:26:45.652Z,0
2017-01-11T05:27:26.202Z,0
2017-01-11T05:28:06.729Z,0
2017-01-11T05:28:47.289Z,0
2017-01-11T05:29:27.829Z,0
2017-01-11T05:30:08.368Z,0
2017-01-11T05:30:48.901Z,0
2017-01-11T05:31:29.476Z,0
2017-01-11T05:32:10.050Z,0
2017-01-11T05:32:50.589Z,0
2017-01-11T05:33:31.136Z,0
2017-01-11T05:34:11.673Z,0
2017-01-11T05:34:52.212Z,0
2017-01-11T05:35:32.734Z,0
2017-01-11T05:36:13.308Z,0
2017-01-11T05:36:53.852Z,0
2017-01-11T05:37:34.408Z,0
2017-01-11T05:38:14.959Z,0
2017-01-11T05:38:55.520Z,0
2017-01-11T05:39:36.083Z,0
2017-01-11T05:40:16.632Z,0
2017-01-11T05:40:57.194Z,0
2017-01-11T05:41:37.729Z,0
2017-01-11T05:42:18.291Z,0
2017-01-11T05:42:58.821Z,0
2017-01-11T05:43:39.358Z,0
2017-01-11T05:44:19.917Z,0
2017-01-11T05:45:00.484Z,0
2017-01-11T05:45:41.019Z,0
2017-01-11T05:46:21.563Z,0
2017-01-11T05:47:02.122Z,0
2017-01-11T05:47:42.645Z,0
2017-01-11T05:48:23.213Z,0
2017-01-11T05:49:03.758Z,0
2017-01-11T05:49:44.276Z,0
2017-01-11T05:50:24.805Z,0
2017-01-11T05:51:05.342Z,0
2017-01-11T05:51:45.896Z,0
2017-01-11T05:52:26.434Z,0
2017-01-11T05:53:06.977Z,0
2017-01-11T05:53:47.523Z,0
2017-01-11T05:54:28.076Z,0
2017-01-11T05:55:08.612Z,0
2017-01-11T05:55:49.182Z,0
2017-01-11T05:56:29.739Z,0
2017-01-11T05:57:10.277Z,0
2017-01-11T05:57:50.822Z,0
2017-01-11T05:58:31.347Z,0
2017-01-11T05:59:11.920Z,0
2017-01-11T05:59:52.451Z,0
2017-01-11T06:00:32.990Z,0
2017-01-11T06:01:13.516Z,0
2017-01-11T06:01:54.052Z,0
2017-01-11T06:02:34.612Z,0
2017-01-11T06:03:15.139Z,0
2017-01-11T06:03:55.703Z,0
2017-01-11T06:04:36.233Z,0
2017-01-11T06:05:16.806Z,0
2017-01-11T06:05:57.358Z,0
2017-01-11T06:06:37.895Z,0
2017-01-11T06:07:18.437Z,0
2017-01-11T06:07:58.970Z,0
2017-01-11T06:08:39.484Z,0
2017-01-11T06:09:20.020Z,0
2017-01-11T06:10:00.568Z,0
2017-01-11T06:10:41.101Z,0
2017-01-11T06:11:21.705Z,0
2017-01-11T06:12:02.263Z,0
2017-01-11T06:12:42.783Z,0
2017-01-11T06:13:23.322Z,0
2017-01-11T06:14:04.655Z,0
2017-01-11T06:14:44.388Z,0
2017-01-11T06:15:24.871Z,0
2017-01-11T06:16:05.409Z,0
2017-01-11T06:18:42.087Z,0
2017-01-11T06:19:22.646Z,0
2017-01-11T06:20:03.214Z,0
2017-01-11T06:20:43.727Z,0
2017-01-11T06:21:24.294Z,0
2017-01-11T06:22:04.849Z,0
2017-01-11T06:22:45.475Z,0
2017-01-11T06:23:25.898Z,0
2017-01-11T06:24:06.416Z,0
2017-01-11T06:24:46.938Z,0
2017-01-11T06:25:27.432Z,0
2017-01-11T06:26:07.960Z,0
2017-01-11T06:26:48.459Z,0
2017-01-11T06:27:29.001Z,0
2017-01-11T06:28:09.550Z,0
2017-01-11T06:28:50.054Z,0
2017-01-11T06:29:30.605Z,0
2017-01-11T06:30:11.161Z,0
2017-01-11T06:30:51.714Z,0
2017-01-11T06:31:32.832Z,0
2017-01-11T06:32:13.381Z,0
2017-01-11T06:32:54.032Z,0
2017-01-11T06:33:34.583Z,0
2017-01-11T06:34:20.090Z,0
2017-01-11T06:35:00.611Z,0
2017-01-11T06:35:41.149Z,0
2017-01-11T06:36:21.781Z,0
2017-01-11T06:37:02.291Z,0
2017-01-11T06:37:42.806Z,0
2017-01-11T06:38:23.373Z,0
2017-01-11T06:39:03.871Z,0
2017-01-11T06:39:44.517Z,0
2017-01-11T06:40:25.059Z,0
2017-01-11T06:41:05.627Z,0
2017-01-11T06:41:46.138Z,0
2017-01-11T06:42:26.677Z,0
2017-01-11T06:43:07.213Z,0
2017-01-11T06:43:47.742Z,0
2017-01-11T06:44:28.224Z,0
2017-01-11T06:45:08.747Z,0
2017-01-11T06:45:49.268Z,0
2017-01-11T06:46:29.804Z,0
2017-01-11T06:47:10.374Z,0
2017-01-11T06:47:50.896Z,0
2017-01-11T06:48:31.448Z,0
2017-01-11T06:49:12.044Z,0
2017-01-11T06:49:52.520Z,0
2017-01-11T06:50:33.061Z,0
2017-01-11T06:51:13.598Z,0
2017-01-11T06:51:54.120Z,0
2017-01-11T06:52:34.620Z,0
2017-01-11T06:53:15.178Z,0
2017-01-11T06:53:55.710Z,0
2017-01-11T06:54:36.257Z,0
2017-01-11T06:55:16.818Z,0
2017-01-11T06:55:57.370Z,0
2017-01-11T06:56:37.897Z,0
2017-01-11T06:57:18.392Z,0
2017-01-11T06:57:58.933Z,0
2017-01-11T06:58:39.459Z,0
2017-01-11T06:59:20.005Z,0
2017-01-11T07:00:00.496Z,0
2017-01-11T07:00:41.059Z,0
2017-01-11T07:01:21.590Z,0
2017-01-11T07:02:02.092Z,0
2017-01-11T07:02:42.829Z,0
2017-01-11T07:03:23.386Z,0
2017-01-11T07:04:03.848Z,0
2017-01-11T07:04:44.457Z,0
2017-01-11T07:05:24.963Z,0
2017-01-11T07:06:05.496Z,0
2017-01-11T07:06:46.033Z,0
2017-01-11T07:07:26.545Z,0
2017-01-11T07:08:07.102Z,0
2017-01-11T07:08:47.578Z,0
2017-01-11T07:09:28.121Z,0
2017-01-11T07:10:08.667Z,0
2017-01-11T07:10:49.167Z,0
2017-01-11T07:11:29.655Z,0
2017-01-11T07:12:10.201Z,0
2017-01-11T07:12:50.745Z,0
2017-01-11T07:13:31.234Z,0
2017-01-11T07:14:11.823Z,0
2017-01-11T07:14:52.339Z,0
2017-01-11T07:15:32.913Z,0
2017-01-11T07:16:13.372Z,0
2017-01-11T07:16:53.896Z,0
2017-01-11T07:17:34.402Z,0
2017-01-11T07:18:14.920Z,0
2017-01-11T07:18:55.422Z,0
2017-01-11T07:19:35.959Z,0
2017-01-11T07:20:16.468Z,0
2017-01-11T07:20:57.048Z,0
2017-01-11T07:21:37.572Z,5
2017-01-11T07:22:18.053Z,5
2017-01-11T07:22:58.610Z,5
2017-01-11T07:23:39.144Z,5
2017-01-11T07:24:19.663Z,5
2017-01-11T07:25:00.165Z,5
2017-01-11T07:25:40.707Z,5
2017-01-11T07:26:21.242Z,5
2017-01-11T07:27:01.802Z,5
2017-01-11T07:27:42.325Z,5
2017-01-11T07:28:22.909Z,5
2017-01-11T07:29:03.437Z,5
2017-01-11T07:29:43.980Z,5
2017-01-11T07:30:24.526Z,10
2017-01-11T07:31:05.077Z,10
2017-01-11T07:31:45.669Z,10
2017-01-11T07:32:26.170Z,10
2017-01-11T07:33:06.742Z,10
2017-01-11T07:33:47.355Z,10
2017-01-11T07:34:27.824Z,10
2017-01-11T07:35:08.331Z,15
2017-01-11T07:35:48.904Z,15
2017-01-11T07:36:29.378Z,15
2017-01-11T07:37:09.903Z,15
2017-01-11T07:37:50.444Z,15
2017-01-11T07:38:30.952Z,15
2017-01-11T07:39:11.445Z,15
2017-01-11T07:39:52.013Z,20
2017-01-11T07:40:32.573Z,20
2017-01-11T07:41:13.067Z,20
2017-01-11T07:41:53.667Z,20
2017-01-11T07:42:34.182Z,20
2017-01-11T07:43:14.704Z,20
2017-01-11T07:43:55.248Z,20
2017-01-11T07:44:35.771Z,20
2017-01-11T07:45:16.328Z,20
2017-01-11T07:45:56.858Z,20
2017-01-11T07:46:37.395Z,25
2017-01-11T07:47:17.904Z,25
2017-01-11T07:47:58.505Z,25
2017-01-11T07:48:39.026Z,25
2017-01-11T07:49:19.557Z,25
2017-01-11T07:50:00.142Z,25
2017-01-11T07:50:40.654Z,25
2017-01-11T07:51:21.184Z,25
2017-01-11T07:52:01.738Z,25
2017-01-11T07:52:42.276Z,25
2017-01-11T07:53:22.760Z,25
2017-01-11T07:54:03.301Z,25
2017-01-11T07:54:43.829Z,25
2017-01-11T07:55:24.352Z,25
2017-01-11T07:56:05.013Z,30
2017-01-11T07:56:45.519Z,25
2017-01-11T07:57:26.074Z,25
2017-01-11T07:58:06.630Z,30
2017-01-11T07:58:47.107Z,30
2017-01-11T07:59:27.616Z,30
2017-01-11T08:00:08.161Z,30
2017-01-11T08:00:48.689Z,30
2017-01-11T08:01:29.221Z,30
2017-01-11T08:02:09.747Z,30
2017-01-11T08:02:50.283Z,35
2017-01-11T08:03:30.820Z,35
2017-01-11T08:04:11.430Z,35
2017-01-11T08:04:51.974Z,35
2017-01-11T08:05:32.518Z,35
2017-01-11T08:06:13.009Z,35
2017-01-11T08:06:53.802Z,35
2017-01-11T08:07:34.798Z,40
2017-01-11T08:08:15.228Z,40
2017-01-11T08:08:55.757Z,40
2017-01-11T08:09:36.330Z,40
2017-01-11T08:10:16.843Z,40
2017-01-11T08:10:57.371Z,40
2017-01-11T08:11:37.947Z,40
2017-01-11T08:12:18.469Z,40
2017-01-11T08:12:58.975Z,40
2017-01-11T08:13:39.598Z,40
2017-01-11T08:14:20.138Z,40
2017-01-11T08:15:00.651Z,40
2017-01-11T08:15:41.219Z,45
2017-01-11T08:16:21.786Z,45
2017-01-11T08:17:02.353Z,45
2017-01-11T08:17:42.874Z,45
2017-01-11T08:18:23.419Z,50
2017-01-11T08:19:03.956Z,50
2017-01-11T08:19:44.491Z,50
2017-01-11T08:20:25.008Z,55
2017-01-11T08:21:05.569Z,55
2017-01-11T08:21:46.080Z,55
2017-01-11T08:22:26.582Z,55
2017-01-11T08:23:07.137Z,55
2017-01-11T08:23:47.640Z,55
2017-01-11T08:24:28.120Z,55
2017-01-11T08:25:08.631Z,55
2017-01-11T08:25:49.212Z,55
2017-01-11T08:26:29.782Z,60
2017-01-11T08:27:10.280Z,60
2017-01-11T08:27:50.798Z,60
2017-01-11T08:28:31.303Z,60
2017-01-11T08:29:11.842Z,65
2017-01-11T08:29:52.400Z,65
2017-01-11T08:30:33.105Z,65
2017-01-11T08:31:13.625Z,65
2017-01-11T08:31:54.202Z,70
2017-01-11T08:32:34.720Z,70
2017-01-11T08:33:15.273Z,70
2017-01-11T08:33:55.785Z,70
2017-01-11T08:34:36.304Z,70
2017-01-11T08:35:16.947Z,70
2017-01-11T08:35:57.432Z,75
2017-01-11T08:36:38.009Z,75
2017-01-11T08:37:18.501Z,75
2017-01-11T08:37:59.000Z,75
2017-01-11T08:38:39.546Z,75
2017-01-11T08:39:20.095Z,75
2017-01-11T08:40:00.650Z,75
2017-01-11T08:40:41.150Z,75
2017-01-11T08:41:21.629Z,75
2017-01-11T08:42:02.203Z,75
2017-01-11T08:42:42.644Z,80
2017-01-11T08:43:24.036Z,80
2017-01-11T08:44:03.902Z,80
2017-01-11T08:44:44.458Z,80
2017-01-11T08:45:24.989Z,80
2017-01-11T08:46:05.530Z,80
2017-01-11T08:46:46.053Z,80
2017-01-11T08:47:26.598Z,85
2017-01-11T08:48:07.146Z,80
2017-01-11T08:48:47.707Z,80
2017-01-11T08:49:28.231Z,80
2017-01-11T08:50:08.791Z,80
2017-01-11T08:50:49.297Z,80
2017-01-11T08:51:29.842Z,80
2017-01-11T08:52:10.382Z,75
2017-01-11T08:52:50.936Z,75
2017-01-11T08:53:31.446Z,80
2017-01-11T08:54:12.003Z,80
2017-01-11T08:54:52.541Z,85
2017-01-11T08:55:33.095Z,85
2017-01-11T08:56:13.635Z,90
2017-01-11T08:56:54.193Z,95
2017-01-11T08:57:34.758Z,100
2017-01-11T08:58:15.266Z,100
2017-01-11T08:58:55.837Z,105
2017-01-11T08:59:36.376Z,110
2017-01-11T09:00:16.890Z,110
2017-01-11T09:00:57.422Z,110
2017-01-11T09:01:37.987Z,110
2017-01-11T09:02:18.650Z,105
2017-01-11T09:02:59.219Z,110
2017-01-11T09:03:39.787Z,110
2017-01-11T09:04:20.301Z,110
2017-01-11T09:05:00.853Z,105
2017-01-11T09:05:41.383Z,105
2017-01-11T09:06:21.917Z,110
2017-01-11T09:07:02.477Z,110
2017-01-11T09:07:43.060Z,100
2017-01-11T09:08:23.567Z,100
2017-01-11T09:09:04.088Z,100
2017-01-11T09:09:44.603Z,105
2017-01-11T09:10:25.121Z,115
2017-01-11T09:11:05.722Z,120
2017-01-11T09:11:46.309Z,130
2017-01-11T09:12:26.843Z,130
2017-01-11T09:13:07.387Z,130
2017-01-11T09:13:47.898Z,135
2017-01-11T09:14:28.452Z,135
2017-01-11T09:15:08.967Z,140
2017-01-11T09:15:49.490Z,145
2017-01-11T09:16:30.032Z,155
2017-01-11T09:17:10.517Z,160
2017-01-11T09:17:51.152Z,165
2017-01-11T09:18:31.607Z,170
2017-01-11T09:19:12.116Z,165
2017-01-11T09:19:52.685Z,170
2017-01-11T09:20:33.232Z,165
2017-01-11T09:21:13.764Z,165
2017-01-11T09:21:54.288Z,160
2017-01-11T09:22:34.829Z,150
2017-01-11T09:23:15.357Z,145
2017-01-11T09:23:55.887Z,135
2017-01-11T09:24:36.431Z,135
2017-01-11T09:25:17.033Z,125
2017-01-11T09:25:57.549Z,120
2017-01-11T09:26:38.107Z,125
2017-01-11T09:27:18.682Z,130
2017-01-11T09:27:59.269Z,140
2017-01-11T09:28:39.820Z,145
2017-01-11T09:29:20.372Z,155
2017-01-11T09:30:00.874Z,155
2017-01-11T09:30:41.362Z,150
2017-01-11T09:31:21.920Z,145
2017-01-11T09:32:02.500Z,145
2017-01-11T09:32:43.009Z,145
2017-01-11T09:33:23.636Z,150
2017-01-11T09:34:04.123Z,145
2017-01-11T09:34:44.638Z,145
2017-01-11T09:35:25.175Z,150
2017-01-11T09:36:05.759Z,145
2017-01-11T09:36:46.303Z,155
2017-01-11T09:37:26.806Z,150
2017-01-11T09:38:07.432Z,150
2017-01-11T09:38:47.989Z,150
2017-01-11T09:39:28.528Z,150
2017-01-11T09:40:09.105Z,145
2017-01-11T09:40:49.627Z,140
2017-01-11T09:41:30.214Z,145
2017-01-11T09:42:10.720Z,145
2017-01-11T09:42:51.207Z,140
2017-01-11T09:43:31.848Z,130
2017-01-11T09:44:12.356Z,135
2017-01-11T09:44:52.873Z,145
2017-01-11T09:45:33.415Z,130
2017-01-11T09:46:13.935Z,130
2017-01-11T09:46:54.423Z,145
2017-01-11T09:47:34.945Z,150
2017-01-11T09:48:15.504Z,135
2017-01-11T09:48:56.082Z,140
2017-01-11T09:49:36.549Z,170
2017-01-11T09:50:17.132Z,180
2017-01-11T09:50:57.682Z,160
2017-01-11T09:51:38.231Z,175
2017-01-11T09:52:18.807Z,195
2017-01-11T09:52:59.350Z,200
2017-01-11T09:53:39.844Z,190
2017-01-11T09:54:20.458Z,180
2017-01-11T09:55:01.013Z,185
2017-01-11T09:55:41.492Z,185
2017-01-11T09:56:21.979Z,185
2017-01-11T09:57:02.544Z,190
2017-01-11T09:57:43.085Z,170
2017-01-11T09:58:23.644Z,155
2017-01-11T09:59:04.334Z,150
2017-01-11T09:59:44.876Z,145
2017-01-11T10:00:25.400Z,135
2017-01-11T10:01:06.001Z,130
2017-01-11T10:01:46.481Z,125
2017-01-11T10:02:27.028Z,120
2017-01-11T10:03:07.566Z,110
2017-01-11T10:03:48.121Z,110
2017-01-11T10:04:28.646Z,105
2017-01-11T10:05:09.233Z,105
2017-01-11T10:05:49.743Z,110
2017-01-11T10:06:30.283Z,115
2017-01-11T10:07:10.808Z,130